Time;durP1;ratioP1;P1;durP2;ratioP2;P2;SDS_P1;SDS_P2;PMS_P1;PMS_P2;Temp;Humidity;BMP_temperature;BMP_pressure;BME280_temperature;BME280_humidity;BME280_pressure;Samples;Min_cycle;Max_cycle;Signal;HPM_P1;HPM_P2
2021/07/14 00:00:09;;;;;;;5.00;2.00;;;;;;;;;;4970458;28;20393;-82
2021/07/14 00:02:55;;;;;;;5.25;2.00;;;;;;;;;;4970346;28;20030;-82
2021/07/14 00:05:40;;;;;;;5.40;1.90;;;;;;;;;;4970024;28;20269;-82
2021/07/14 00:08:26;;;;;;;2.40;1.77;;;;;;;;;;4956570;28;20489;-81
2021/07/14 00:11:11;;;;;;;5.13;1.90;;;;;;;;;;4956769;28;20031;-81
2021/07/14 00:14:14;;;;;;;7.28;2.22;;;;;;;;;;4918484;29;20043;-82
2021/07/14 00:22:53;;;;;;;3.85;1.77;;;;;;;;;;4918292;29;20482;-81
2021/07/14 00:25:39;;;;;;;6.25;1.90;;;;;;;;;;4918385;29;20113;-82
2021/07/14 00:28:24;;;;;;;3.00;1.90;;;;;;;;;;4918126;29;20027;-82
2021/07/14 00:31:14;;;;;;;3.28;2.00;;;;;;;;;;4918635;29;20110;-82
2021/07/14 00:34:00;;;;;;;5.45;2.20;;;;;;;;;;4918007;29;20418;-82
2021/07/14 00:36:45;;;;;;;3.67;2.22;;;;;;;;;;4918025;29;20384;-82
2021/07/14 00:39:30;;;;;;;5.13;2.47;;;;;;;;;;4916838;29;20035;-82
2021/07/14 00:42:15;;;;;;;3.10;1.77;;;;;;;;;;4917813;29;20039;-82
2021/07/14 00:45:00;;;;;;;3.78;2.10;;;;;;;;;;4914341;29;20087;-82
2021/07/14 00:47:49;;;;;;;4.65;1.95;;;;;;;;;;4916269;29;20114;-82
2021/07/14 00:50:35;;;;;;;2.58;1.75;;;;;;;;;;4917910;29;20450;-82
2021/07/14 00:53:20;;;;;;;3.17;2.13;;;;;;;;;;4914731;29;20183;-83
2021/07/14 00:56:05;;;;;;;5.45;2.38;;;;;;;;;;4917430;29;20398;-82
2021/07/14 00:58:51;;;;;;;4.97;2.13;;;;;;;;;;4917274;29;20782;-82
2021/07/14 01:01:36;;;;;;;8.68;2.47;;;;;;;;;;4915998;29;20024;-82
2021/07/14 01:04:29;;;;;;;4.13;2.17;;;;;;;;;;4917397;29;20059;-82
2021/07/14 01:07:17;;;;;;;4.15;2.28;;;;;;;;;;4946889;29;20714;-81
2021/07/14 01:10:05;;;;;;;5.82;1.80;;;;;;;;;;4948250;29;20049;-82
2021/07/14 01:12:53;;;;;;;6.63;2.33;;;;;;;;;;4961261;28;20829;-82
2021/07/14 01:15:43;;;;;;;6.57;1.92;;;;;;;;;;4959634;28;20026;-83
2021/07/14 01:18:28;;;;;;;;;;;;;;;;;;4950645;29;20023;-81
2021/07/14 01:21:18;;;;;;;4.68;1.83;;;;;;;;;;4959619;28;19906;-83
2021/07/14 01:24:10;;;;;;;6.43;2.00;;;;;;;;;;4950393;29;20057;-82
2021/07/14 01:27:04;;;;;;;5.88;2.38;;;;;;;;;;4949564;29;20553;-82
2021/07/14 01:29:51;;;;;;;9.05;2.83;;;;;;;;;;4950020;29;20035;-82
2021/07/14 01:32:38;;;;;;;6.25;2.13;;;;;;;;;;4949894;29;20091;-82
2021/07/14 01:35:26;;;;;;;2.75;2.28;;;;;;;;;;4949663;29;20639;-82
2021/07/14 01:38:13;;;;;;;5.57;2.20;;;;;;;;;;4949822;29;20027;-82
2021/07/14 01:40:58;;;;;;;5.32;2.00;;;;;;;;;;4950112;29;20027;-82
2021/07/14 01:43:45;;;;;;;5.32;2.30;;;;;;;;;;4949802;29;20055;-82
2021/07/14 01:46:32;;;;;;;3.50;1.92;;;;;;;;;;4949818;29;20070;-82
2021/07/14 01:49:18;;;;;;;5.22;2.00;;;;;;;;;;4948063;29;20034;-82
2021/07/14 01:52:12;;;;;;;4.63;2.42;;;;;;;;;;4949705;29;20079;-82
2021/07/14 01:54:59;;;;;;;4.20;2.20;;;;;;;;;;4946213;29;20031;-84
2021/07/14 01:57:45;;;;;;;4.38;2.00;;;;;;;;;;4952757;29;20047;-84
2021/07/14 02:00:31;;;;;;;3.88;2.00;;;;;;;;;;4951887;29;20059;-84
2021/07/14 02:06:17;;;;;;;2.22;1.90;;;;;;;;;;4952729;29;20502;-83
2021/07/14 02:09:02;;;;;;;5.15;2.88;;;;;;;;;;4939835;29;20270;-83
2021/07/14 02:11:49;;;;;;;3.10;2.08;;;;;;;;;;4955833;28;20073;-83
2021/07/14 02:14:57;;;;;;;9.65;2.38;;;;;;;;;;4972264;28;20026;-83
2021/07/14 02:17:43;;;;;;;5.25;2.58;;;;;;;;;;4972551;28;20430;-83
2021/07/14 02:20:28;;;;;;;6.15;2.63;;;;;;;;;;4972584;28;20033;-82
2021/07/14 02:23:13;;;;;;;4.70;2.50;;;;;;;;;;4972023;28;20474;-83
2021/07/14 02:26:02;;;;;;;6.30;2.63;;;;;;;;;;4972305;28;20101;-82
2021/07/14 02:28:47;;;;;;;4.65;2.20;;;;;;;;;;4972295;28;20090;-82
2021/07/14 02:31:33;;;;;;;5.30;2.50;;;;;;;;;;4970468;28;20045;-82
2021/07/14 02:34:18;;;;;;;7.20;2.25;;;;;;;;;;4972265;28;20019;-82
2021/07/14 02:37:05;;;;;;;8.88;2.28;;;;;;;;;;4962743;28;20023;-82
2021/07/14 02:39:52;;;;;;;6.45;2.30;;;;;;;;;;4952821;29;20027;-82
2021/07/14 02:42:37;;;;;;;6.68;2.42;;;;;;;;;;4952718;29;20386;-82
2021/07/14 02:45:24;;;;;;;6.80;2.45;;;;;;;;;;4952501;29;20027;-81
2021/07/14 02:48:10;;;;;;;3.80;2.58;;;;;;;;;;4952691;29;20057;-82
2021/07/14 02:50:56;;;;;;;10.73;2.40;;;;;;;;;;4952219;29;20034;-82
2021/07/14 02:53:45;;;;;;;3.67;2.30;;;;;;;;;;4952558;29;20030;-81
2021/07/14 02:56:31;;;;;;;6.05;2.38;;;;;;;;;;4952172;29;20027;-82
2021/07/14 02:59:18;;;;;;;7.75;2.30;;;;;;;;;;4950655;29;20379;-82
2021/07/14 03:02:04;;;;;;;4.82;2.53;;;;;;;;;;4952248;29;20098;-83
2021/07/14 03:04:50;;;;;;;4.25;2.20;;;;;;;;;;4951926;29;20038;-81
2021/07/14 03:07:36;;;;;;;14.48;2.60;;;;;;;;;;4951271;28;20169;-81
2021/07/14 03:10:21;;;;;;;6.53;2.42;;;;;;;;;;4952338;29;20058;-83
2021/07/14 03:13:07;;;;;;;9.93;2.65;;;;;;;;;;4965016;28;20442;-82
2021/07/14 03:15:53;;;;;;;10.13;2.85;;;;;;;;;;4965365;28;20019;-82
2021/07/14 03:18:40;;;;;;;4.97;2.70;;;;;;;;;;4949907;29;20026;-82
2021/07/14 03:21:28;;;;;;;9.27;2.88;;;;;;;;;;4951865;29;20114;-82
2021/07/14 03:24:14;;;;;;;4.35;2.30;;;;;;;;;;4951745;29;20079;-82
2021/07/14 03:27:00;;;;;;;5.18;2.22;;;;;;;;;;4950036;29;20118;-82
2021/07/14 03:29:46;;;;;;;6.22;2.80;;;;;;;;;;4951895;29;20030;-82
2021/07/14 03:32:31;;;;;;;6.90;2.58;;;;;;;;;;4951243;29;20081;-81
2021/07/14 03:35:17;;;;;;;8.30;2.50;;;;;;;;;;4951372;29;20031;-81
2021/07/14 03:38:03;;;;;;;4.18;2.30;;;;;;;;;;4951820;29;20019;-82
2021/07/14 03:40:49;;;;;;;7.03;2.55;;;;;;;;;;4951180;29;20663;-81
2021/07/14 03:43:35;;;;;;;5.63;2.85;;;;;;;;;;4951984;29;20104;-82
2021/07/14 03:46:20;;;;;;;9.77;2.30;;;;;;;;;;4951261;29;20035;-82
2021/07/14 03:49:06;;;;;;;3.88;2.30;;;;;;;;;;4951315;29;20023;-82
2021/07/14 03:51:51;;;;;;;6.28;3.22;;;;;;;;;;4949804;29;20035;-82
2021/07/14 03:54:37;;;;;;;6.57;2.55;;;;;;;;;;4950961;29;20042;-82
2021/07/14 03:57:23;;;;;;;2.83;2.33;;;;;;;;;;4951112;29;20031;-81
2021/07/14 04:00:08;;;;;;;8.20;2.97;;;;;;;;;;4951203;29;20020;-82
2021/07/14 04:02:54;;;;;;;5.35;2.80;;;;;;;;;;4950805;29;20027;-81
2021/07/14 04:05:44;;;;;;;5.50;2.45;;;;;;;;;;4950900;28;20059;-81
2021/07/14 04:08:37;;;;;;;5.28;2.55;;;;;;;;;;4950625;29;20034;-81
2021/07/14 04:11:22;;;;;;;6.72;2.78;;;;;;;;;;4951378;29;20035;-82
2021/07/14 04:14:07;;;;;;;9.50;3.00;;;;;;;;;;4969837;28;20481;-82
2021/07/14 04:16:53;;;;;;;8.30;2.45;;;;;;;;;;4950865;29;20031;-82
2021/07/14 04:19:40;;;;;;;4.68;2.50;;;;;;;;;;4950638;28;20114;-82
2021/07/14 04:22:25;;;;;;;5.88;2.83;;;;;;;;;;4950918;29;20078;-82
2021/07/14 04:25:10;;;;;;;9.45;2.80;;;;;;;;;;4951138;29;20034;-82
2021/07/14 04:27:55;;;;;;;5.45;2.80;;;;;;;;;;4950745;29;20023;-82
2021/07/14 04:30:41;;;;;;;4.22;2.60;;;;;;;;;;4950615;29;20038;-81
2021/07/14 04:33:26;;;;;;;9.02;2.90;;;;;;;;;;4947681;29;20482;-81
2021/07/14 04:36:11;;;;;;;9.13;3.00;;;;;;;;;;4950203;29;20033;-82
2021/07/14 04:38:57;;;;;;;6.72;2.60;;;;;;;;;;4950427;29;20114;-81
2021/07/14 04:41:42;;;;;;;8.10;3.10;;;;;;;;;;4950587;29;20027;-82
2021/07/14 04:44:47;;;;;;;5.97;3.20;;;;;;;;;;4950015;29;20443;-82
2021/07/14 04:47:32;;;;;;;8.68;2.92;;;;;;;;;;4950158;29;20431;-81
2021/07/14 04:50:18;;;;;;;8.63;3.50;;;;;;;;;;4950273;29;20552;-81
2021/07/14 04:53:03;;;;;;;4.75;2.92;;;;;;;;;;4950347;29;20493;-82
2021/07/14 04:55:48;;;;;;;8.40;4.25;;;;;;;;;;4950167;29;20114;-83
2021/07/14 04:58:33;;;;;;;3.92;2.63;;;;;;;;;;4950576;29;20035;-82
2021/07/14 05:01:18;;;;;;;17.63;3.15;;;;;;;;;;4950085;29;20023;-82
2021/07/14 05:04:04;;;;;;;5.50;2.90;;;;;;;;;;4949965;29;20023;-81
2021/07/14 05:06:49;;;;;;;4.15;2.63;;;;;;;;;;4950033;29;20117;-82
2021/07/14 05:09:34;;;;;;;8.90;2.65;;;;;;;;;;4948080;29;20046;-82
2021/07/14 05:12:19;;;;;;;5.28;3.15;;;;;;;;;;4954435;28;20054;-82
2021/07/14 05:15:05;;;;;;;8.80;2.92;;;;;;;;;;4963281;28;20034;-82
2021/07/14 05:17:50;;;;;;;7.25;2.65;;;;;;;;;;4949647;29;20058;-82
2021/07/14 05:20:36;;;;;;;4.72;2.90;;;;;;;;;;4950088;29;20386;-82
2021/07/14 05:23:21;;;;;;;5.15;3.08;;;;;;;;;;4950128;29;20110;-83
2021/07/14 05:26:06;;;;;;;4.90;2.92;;;;;;;;;;4949851;29;20019;-83
2021/07/14 05:28:51;;;;;;;5.68;2.55;;;;;;;;;;4948637;29;20023;-82
2021/07/14 05:31:37;;;;;;;6.70;3.00;;;;;;;;;;4951532;28;20071;-82
2021/07/14 05:34:22;;;;;;;7.28;3.08;;;;;;;;;;4940226;29;20023;-83
2021/07/14 05:37:07;;;;;;;8.13;3.40;;;;;;;;;;4953827;29;20027;-83
2021/07/14 05:39:53;;;;;;;4.25;2.95;;;;;;;;;;4953792;29;20023;-83
2021/07/14 05:42:38;;;;;;;7.95;3.05;;;;;;;;;;4953689;29;20311;-83
2021/07/14 05:45:26;;;;;;;7.47;2.85;;;;;;;;;;4953856;29;20020;-83
2021/07/14 05:48:11;;;;;;;4.95;2.78;;;;;;;;;;4941459;29;20027;-84
2021/07/14 05:50:57;;;;;;;5.78;2.60;;;;;;;;;;4951913;29;20063;-86
2021/07/14 05:53:42;;;;;;;3.72;2.42;;;;;;;;;;4953822;29;20023;-84
2021/07/14 05:56:27;;;;;;;7.75;2.58;;;;;;;;;;4953107;29;20109;-85
2021/07/14 05:59:12;;;;;;;8.52;2.75;;;;;;;;;;4952092;29;20023;-85
2021/07/14 06:01:58;;;;;;;7.25;2.55;;;;;;;;;;4953691;29;20023;-86
2021/07/14 06:04:43;;;;;;;6.55;2.83;;;;;;;;;;4953274;29;20031;-86
2021/07/14 06:07:31;;;;;;;8.20;3.00;;;;;;;;;;4953409;29;20663;-86
2021/07/14 06:10:17;;;;;;;5.75;2.53;;;;;;;;;;4938015;29;20389;-86
2021/07/14 06:13:02;;;;;;;5.32;2.70;;;;;;;;;;4962299;28;20054;-85
2021/07/14 06:15:47;;;;;;;7.32;2.70;;;;;;;;;;4966539;28;20058;-85
2021/07/14 06:18:32;;;;;;;3.58;2.63;;;;;;;;;;4952782;29;20023;-86
2021/07/14 06:21:18;;;;;;;3.95;2.05;;;;;;;;;;4953092;29;20023;-86
2021/07/14 06:24:03;;;;;;;4.88;2.53;;;;;;;;;;4953121;29;20181;-86
2021/07/14 06:26:50;;;;;;;6.97;3.42;;;;;;;;;;4952720;29;20474;-85
2021/07/14 06:29:35;;;;;;;5.95;2.70;;;;;;;;;;4951564;29;20034;-85
2021/07/14 06:32:20;;;;;;;6.78;2.95;;;;;;;;;;4939184;29;20023;-85
2021/07/14 06:35:07;;;;;;;7.90;4.22;;;;;;;;;;4937269;29;20024;-85
2021/07/14 06:37:52;;;;;;;11.20;4.72;;;;;;;;;;4952477;29;20126;-85
2021/07/14 06:40:38;;;;;;;6.63;3.10;;;;;;;;;;4951908;29;20034;-84
2021/07/14 06:43:31;;;;;;;6.50;3.15;;;;;;;;;;4952001;28;20031;-84
2021/07/14 06:46:18;;;;;;;9.52;2.75;;;;;;;;;;4938849;29;20023;-84
2021/07/14 06:49:03;;;;;;;3.58;2.72;;;;;;;;;;4950640;29;20019;-85
2021/07/14 06:51:48;;;;;;;6.10;3.05;;;;;;;;;;4952498;29;20023;-85
2021/07/14 06:54:38;;;;;;;5.20;2.80;;;;;;;;;;4935304;29;20081;-84
2021/07/14 06:57:25;;;;;;;;;;;;;;;;;;4952092;29;20097;-85
2021/07/14 07:00:11;;;;;;;12.77;7.30;;;;;;;;;;4951740;29;19913;-85
2021/07/14 07:02:56;;;;;;;6.00;3.20;;;;;;;;;;4950411;29;20030;-84
2021/07/14 07:05:41;;;;;;;8.02;3.72;;;;;;;;;;4951703;28;20379;-85
2021/07/14 07:08:26;;;;;;;5.72;3.25;;;;;;;;;;4936756;29;20390;-84
2021/07/14 07:11:12;;;;;;;6.25;3.42;;;;;;;;;;4951652;29;20295;-84
2021/07/14 07:13:57;;;;;;;7.60;2.88;;;;;;;;;;4951538;29;20034;-83
2021/07/14 07:16:42;;;;;;;6.40;3.10;;;;;;;;;;4970303;28;20042;-84
2021/07/14 07:19:27;;;;;;;4.97;2.80;;;;;;;;;;4969592;28;20085;-83
2021/07/14 07:22:12;;;;;;;6.05;2.60;;;;;;;;;;4956838;28;20018;-83
2021/07/14 07:25:00;;;;;;;4.78;2.75;;;;;;;;;;4967420;28;20026;-84
2021/07/14 07:27:46;;;;;;;6.43;2.95;;;;;;;;;;4957279;28;20022;-84
2021/07/14 07:30:31;;;;;;;5.78;2.70;;;;;;;;;;4967081;28;20046;-84
2021/07/14 07:33:16;;;;;;;5.05;2.88;;;;;;;;;;4970657;28;20324;-85
2021/07/14 07:36:02;;;;;;;6.68;2.75;;;;;;;;;;4967150;28;20497;-85
2021/07/14 07:38:47;;;;;;;4.05;2.50;;;;;;;;;;4968969;28;20042;-84
2021/07/14 07:41:33;;;;;;;8.32;2.47;;;;;;;;;;4970759;28;20558;-84
2021/07/14 07:44:18;;;;;;;12.68;8.68;;;;;;;;;;4956526;28;20396;-84
2021/07/14 07:47:03;;;;;;;8.80;4.45;;;;;;;;;;4966787;28;20508;-84
2021/07/14 07:49:49;;;;;;;10.60;3.85;;;;;;;;;;4968989;28;20042;-84
2021/07/14 07:52:34;;;;;;;8.65;3.55;;;;;;;;;;4956332;28;20030;-83
2021/07/14 07:55:19;;;;;;;9.60;2.85;;;;;;;;;;4969209;28;20072;-84
2021/07/14 07:58:05;;;;;;;5.70;2.58;;;;;;;;;;4970048;28;20041;-85
2021/07/14 08:00:50;;;;;;;5.50;3.17;;;;;;;;;;4969771;28;20046;-84
2021/07/14 08:03:35;;;;;;;5.90;3.20;;;;;;;;;;4970102;28;20030;-83
2021/07/14 08:06:20;;;;;;;3.63;2.65;;;;;;;;;;4969229;28;20108;-84
2021/07/14 08:09:06;;;;;;;4.80;2.67;;;;;;;;;;4969105;28;20058;-85
2021/07/14 08:11:51;;;;;;;6.45;2.33;;;;;;;;;;4969007;28;20034;-84
2021/07/14 08:14:37;;;;;;;6.72;2.55;;;;;;;;;;4969009;28;20023;-84
2021/07/14 08:17:22;;;;;;;4.07;2.22;;;;;;;;;;4968949;28;20114;-84
2021/07/14 08:20:08;;;;;;;11.20;6.60;;;;;;;;;;4968044;28;20477;-84
2021/07/14 08:22:54;;;;;;;8.60;4.60;;;;;;;;;;4968887;28;20394;-86
2021/07/14 08:25:39;;;;;;;6.15;3.40;;;;;;;;;;4969416;28;20062;-84
2021/07/14 08:28:25;;;;;;;7.72;3.20;;;;;;;;;;4968226;28;20038;-85
2021/07/14 08:31:10;;;;;;;8.80;3.65;;;;;;;;;;4969275;28;20118;-84
2021/07/14 08:33:56;;;;;;;7.70;4.40;;;;;;;;;;4968855;28;20043;-84
2021/07/14 08:36:41;;;;;;;4.72;2.97;;;;;;;;;;4968921;28;20027;-84
2021/07/14 08:39:26;;;;;;;7.90;3.67;;;;;;;;;;4966905;28;20102;-85
2021/07/14 08:42:14;;;;;;;4.55;2.92;;;;;;;;;;4968960;28;20027;-84
2021/07/14 08:45:01;;;;;;;5.60;3.00;;;;;;;;;;4968144;28;20023;-84
2021/07/14 08:47:47;;;;;;;8.38;2.78;;;;;;;;;;4968747;28;20026;-85
2021/07/14 08:50:32;;;;;;;10.20;4.35;;;;;;;;;;4967316;28;20026;-85
2021/07/14 08:53:19;;;;;;;18.83;11.35;;;;;;;;;;4955498;28;20022;-85
2021/07/14 08:56:04;;;;;;;9.15;4.07;;;;;;;;;;4969440;28;20385;-84
2021/07/14 08:58:49;;;;;;;4.57;2.88;;;;;;;;;;4967081;28;20026;-83
2021/07/14 09:01:34;;;;;;;5.30;3.20;;;;;;;;;;4968480;28;20031;-83
2021/07/14 09:04:19;;;;;;;3.08;2.60;;;;;;;;;;4968743;28;20062;-83
2021/07/14 09:07:06;;;;;;;6.38;3.10;;;;;;;;;;4932558;28;1054011;-84
2021/07/14 09:09:52;;;;;;;4.22;2.70;;;;;;;;;;4969363;28;20046;-83
2021/07/14 09:12:38;;;;;;;3.78;2.63;;;;;;;;;;4963677;28;20371;-83
2021/07/14 09:15:26;;;;;;;7.57;3.30;;;;;;;;;;4958299;28;20081;-83
2021/07/14 09:18:12;;;;;;;6.63;2.63;;;;;;;;;;4969295;28;20398;-83
2021/07/14 09:20:58;;;;;;;3.58;2.50;;;;;;;;;;4968765;28;20470;-84
2021/07/14 09:23:43;;;;;;;6.53;2.80;;;;;;;;;;4969555;28;20035;-85
2021/07/14 09:26:29;;;;;;;6.63;2.70;;;;;;;;;;4968992;28;20456;-85
2021/07/14 09:29:14;;;;;;;3.60;2.85;;;;;;;;;;4968660;28;20026;-85
2021/07/14 09:31:59;;;;;;;3.08;2.60;;;;;;;;;;4969280;28;20566;-84
2021/07/14 09:34:45;;;;;;;4.57;2.38;;;;;;;;;;4969243;28;20430;-84
2021/07/14 09:37:30;;;;;;;4.50;3.13;;;;;;;;;;4968761;28;20030;-85
2021/07/14 09:40:16;;;;;;;8.38;4.10;;;;;;;;;;4967972;28;20245;-85
2021/07/14 09:43:07;;;;;;;4.85;2.92;;;;;;;;;;4968584;28;20473;-83
2021/07/14 09:45:57;;;;;;;5.53;3.00;;;;;;;;;;4969312;28;20746;-85
2021/07/14 09:48:43;;;;;;;3.90;2.83;;;;;;;;;;4967381;28;20065;-85
2021/07/14 09:51:28;;;;;;;5.70;3.00;;;;;;;;;;4969478;28;20065;-85
2021/07/14 09:54:25;;;;;;;3.42;2.80;;;;;;;;;;4966145;28;20027;-85
2021/07/14 09:57:15;;;;;;;6.53;2.80;;;;;;;;;;4968979;28;20019;-84
2021/07/14 10:00:16;;;;;;;2.97;2.67;;;;;;;;;;4967541;28;20019;-85
2021/07/14 10:03:02;;;;;;;3.70;2.20;;;;;;;;;;4968997;28;20429;-85
2021/07/14 10:05:48;;;;;;;8.50;2.50;;;;;;;;;;4969177;28;20054;-85
2021/07/14 10:08:34;;;;;;;6.63;2.97;;;;;;;;;;4969392;28;20496;-84
2021/07/14 10:11:22;;;;;;;8.40;3.13;;;;;;;;;;4969330;28;20545;-86
2021/07/14 10:14:08;;;;;;;2.97;2.40;;;;;;;;;;4950125;29;20466;-85
2021/07/14 10:16:53;;;;;;;4.53;3.42;;;;;;;;;;4949527;28;20024;-85
2021/07/14 10:19:39;;;;;;;8.63;5.50;;;;;;;;;;4953105;29;20252;-86
2021/07/14 10:22:24;;;;;;;6.45;2.75;;;;;;;;;;4951998;29;20027;-86
2021/07/14 10:25:09;;;;;;;3.45;2.35;;;;;;;;;;4952834;29;20035;-85
2021/07/14 10:27:55;;;;;;;4.47;2.30;;;;;;;;;;4953435;29;20119;-86
2021/07/14 10:30:41;;;;;;;4.63;2.28;;;;;;;;;;4951323;29;20019;-86
2021/07/14 10:33:27;;;;;;;4.43;2.58;;;;;;;;;;4950016;29;20027;-86
2021/07/14 10:36:14;;;;;;;4.85;2.15;;;;;;;;;;4952883;29;20023;-85
2021/07/14 10:39:19;;;;;;;3.78;2.22;;;;;;;;;;4950446;29;20106;-84
2021/07/14 10:42:05;;;;;;;4.13;1.95;;;;;;;;;;4952148;29;20371;-85
2021/07/14 10:44:51;;;;;;;3.72;1.70;;;;;;;;;;4952462;29;20026;-84
2021/07/14 10:47:36;;;;;;;4.13;2.45;;;;;;;;;;4952103;29;20079;-83
2021/07/14 10:50:21;;;;;;;4.43;2.33;;;;;;;;;;4952132;29;20027;-85
2021/07/14 10:53:06;;;;;;;5.30;2.42;;;;;;;;;;4949219;29;20487;-84
2021/07/14 10:55:53;;;;;;;2.90;2.10;;;;;;;;;;4951562;29;20031;-85
2021/07/14 10:58:39;;;;;;;3.45;2.00;;;;;;;;;;4950618;29;20023;-85
2021/07/14 11:01:40;;;;;;;2.00;1.80;;;;;;;;;;4952184;29;20042;-85
2021/07/14 11:04:25;;;;;;;2.60;1.73;;;;;;;;;;4951856;29;20382;-84
2021/07/14 11:07:11;;;;;;;7.90;2.47;;;;;;;;;;4949681;29;20058;-85
2021/07/14 11:09:56;;;;;;;3.55;2.03;;;;;;;;;;4952036;29;20023;-85
2021/07/14 11:12:41;;;;;;;5.22;1.67;;;;;;;;;;4958104;28;20386;-84
2021/07/14 11:15:27;;;;;;;3.22;1.70;;;;;;;;;;4964736;28;20027;-85
2021/07/14 11:18:28;;;;;;;4.28;1.60;;;;;;;;;;4951876;29;20058;-83
2021/07/14 11:21:33;;;;;;;2.00;1.30;;;;;;;;;;4951683;29;20054;-83
2021/07/14 11:24:41;;;;;;;2.92;1.88;;;;;;;;;;4951605;29;20043;-83
2021/07/14 11:27:27;;;;;;;2.30;1.30;;;;;;;;;;4951158;29;20034;-84
2021/07/14 11:30:12;;;;;;;4.53;1.70;;;;;;;;;;4950168;28;20099;-84
2021/07/14 11:32:58;;;;;;;2.97;1.88;;;;;;;;;;4952616;29;20359;-82
2021/07/14 11:35:51;;;;;;;4.20;1.20;;;;;;;;;;4951670;29;20418;-81
2021/07/14 11:38:43;;;;;;;2.63;1.52;;;;;;;;;;4952019;29;20038;-81
2021/07/14 11:41:29;;;;;;;1.60;1.20;;;;;;;;;;4951060;29;20134;-82
2021/07/14 11:44:33;;;;;;;6.47;1.50;;;;;;;;;;4951882;29;20094;-87
2021/07/14 11:47:34;;;;;;;1.95;1.23;;;;;;;;;;4952389;29;20027;-86
2021/07/14 11:50:39;;;;;;;4.55;1.50;;;;;;;;;;4951965;29;20035;-86
2021/07/14 11:53:25;;;;;;;2.53;1.50;;;;;;;;;;4951689;29;20373;-87
2021/07/14 11:56:17;;;;;;;3.63;1.20;;;;;;;;;;4951233;29;20020;-87
2021/07/14 11:59:22;;;;;;;9.63;5.57;;;;;;;;;;4951319;29;20134;-88
2021/07/14 12:02:16;;;;;;;2.60;1.30;;;;;;;;;;4949371;29;20130;-88
2021/07/14 12:05:04;;;;;;;3.90;1.42;;;;;;;;;;4937958;28;20023;-87
2021/07/14 12:07:51;;;;;;;2.08;1.20;;;;;;;;;;4950981;29;20031;-87
2021/07/14 12:10:38;;;;;;;3.78;1.40;;;;;;;;;;4951486;29;20027;-87
2021/07/14 12:13:23;;;;;;;1.75;1.05;;;;;;;;;;4966162;28;20015;-88
2021/07/14 12:16:08;;;;;;;3.60;1.20;;;;;;;;;;4964518;28;20028;-88
2021/07/14 12:18:54;;;;;;;1.80;1.30;;;;;;;;;;4950979;29;20030;-87
2021/07/14 12:21:41;;;;;;;1.23;0.93;;;;;;;;;;4950510;29;20031;-86
2021/07/14 12:24:31;;;;;;;1.88;1.35;;;;;;;;;;4950928;29;20078;-86
2021/07/14 12:27:16;;;;;;;1.90;1.13;;;;;;;;;;4950707;29;20054;-89
2021/07/14 12:30:06;;;;;;;3.38;1.35;;;;;;;;;;4947686;29;20039;-87
2021/07/14 12:32:52;;;;;;;1.38;1.27;;;;;;;;;;4950823;29;20498;-87
2021/07/14 12:35:43;;;;;;;2.22;1.40;;;;;;;;;;4950336;29;20039;-86
2021/07/14 12:38:28;;;;;;;2.97;1.35;;;;;;;;;;4950786;29;20118;-86
2021/07/14 12:41:13;;;;;;;2.70;1.25;;;;;;;;;;4949708;28;20023;-86
2021/07/14 12:44:07;;;;;;;2.85;1.48;;;;;;;;;;4950144;29;20587;-86
2021/07/14 12:46:53;;;;;;;4.10;1.50;;;;;;;;;;4949793;29;20031;-85
2021/07/14 12:49:38;;;;;;;4.63;1.20;;;;;;;;;;4948540;29;20647;-84
2021/07/14 12:52:23;;;;;;;1.42;1.20;;;;;;;;;;4949588;29;20046;-85
2021/07/14 12:55:17;;;;;;;3.65;2.15;;;;;;;;;;4949757;29;20038;-85
2021/07/14 12:58:07;;;;;;;5.95;3.47;;;;;;;;;;4949343;29;20434;-86
2021/07/14 13:00:53;;;;;;;2.38;1.30;;;;;;;;;;4950015;29;20057;-85
2021/07/14 13:03:38;;;;;;;1.35;1.00;;;;;;;;;;4949836;29;20035;-85
2021/07/14 13:06:25;;;;;;;2.70;1.20;;;;;;;;;;4949471;29;20097;-85
2021/07/14 13:09:10;;;;;;;1.70;1.30;;;;;;;;;;4950099;29;20038;-85
2021/07/14 13:11:55;;;;;;;3.70;1.50;;;;;;;;;;4953083;28;20019;-86
2021/07/14 13:14:41;;;;;;;1.85;1.30;;;;;;;;;;4968875;28;20027;-86
2021/07/14 13:17:33;;;;;;;3.08;1.38;;;;;;;;;;4968943;28;20085;-87
2021/07/14 13:20:18;;;;;;;1.65;1.20;;;;;;;;;;4968941;28;20014;-85
2021/07/14 13:23:05;;;;;;;2.67;1.17;;;;;;;;;;4969312;28;20378;-85
2021/07/14 13:25:51;;;;;;;1.83;1.40;;;;;;;;;;4968940;28;20114;-86
2021/07/14 13:28:36;;;;;;;5.68;2.40;;;;;;;;;;4955586;28;20031;-84
2021/07/14 13:31:22;;;;;;;2.10;1.30;;;;;;;;;;4965944;28;20406;-84
2021/07/14 13:34:12;;;;;;;2.65;1.00;;;;;;;;;;4962219;28;20037;-84
2021/07/14 13:36:57;;;;;;;1.73;1.25;;;;;;;;;;4961579;28;20086;-85
2021/07/14 13:39:42;;;;;;;2.22;1.13;;;;;;;;;;4963817;28;20037;-85
2021/07/14 13:42:32;;;;;;;4.10;1.35;;;;;;;;;;4963622;28;20370;-86
2021/07/14 13:45:17;;;;;;;;;;;;;;;;;;4964309;28;20022;-84
2021/07/14 13:48:03;;;;;;;1.38;1.23;;;;;;;;;;4948170;28;19907;-85
2021/07/14 13:50:53;;;;;;;1.50;1.15;;;;;;;;;;4958419;28;20113;-86
2021/07/14 13:53:38;;;;;;;1.10;1.00;;;;;;;;;;4963269;28;20046;-86
2021/07/14 13:56:27;;;;;;;20.98;16.13;;;;;;;;;;4973123;28;20589;-85
2021/07/14 13:59:31;;;;;;;1.65;1.42;;;;;;;;;;4958829;28;20101;-85
2021/07/14 14:02:18;;;;;;;2.95;1.30;;;;;;;;;;4969165;28;20035;-85
2021/07/14 14:05:05;;;;;;;1.50;1.25;;;;;;;;;;4972469;28;20023;-85
2021/07/14 14:07:50;;;;;;;1.42;1.10;;;;;;;;;;4969159;28;20031;-85
2021/07/14 14:10:40;;;;;;;4.63;1.70;;;;;;;;;;4959208;28;20489;-86
2021/07/14 14:13:32;;;;;;;2.35;1.30;;;;;;;;;;4970892;28;20041;-85
2021/07/14 14:16:18;;;;;;;3.03;1.20;;;;;;;;;;4958950;28;20045;-85
2021/07/14 14:19:07;;;;;;;1.52;1.20;;;;;;;;;;4971962;28;20022;-86
2021/07/14 14:21:53;;;;;;;3.80;1.25;;;;;;;;;;4968579;28;20049;-86
2021/07/14 14:24:39;;;;;;;14.40;10.13;;;;;;;;;;4971835;28;20082;-85
2021/07/14 14:27:43;;;;;;;2.60;1.27;;;;;;;;;;4971800;28;20477;-85
2021/07/14 14:30:30;;;;;;;1.30;1.20;;;;;;;;;;4970263;28;20066;-85
2021/07/14 14:33:15;;;;;;;2.58;1.58;;;;;;;;;;4972205;28;20026;-85
2021/07/14 14:36:01;;;;;;;1.23;1.13;;;;;;;;;;4971510;28;20030;-84
2021/07/14 14:38:47;;;;;;;1.45;1.35;;;;;;;;;;4970353;28;20031;-86
2021/07/14 14:41:32;;;;;;;3.08;1.42;;;;;;;;;;4972031;28;20154;-85
2021/07/14 14:44:17;;;;;;;1.90;1.17;;;;;;;;;;4969383;28;20023;-84
2021/07/14 14:47:03;;;;;;;2.13;1.30;;;;;;;;;;4958147;28;20031;-85
2021/07/14 14:49:48;;;;;;;1.40;1.05;;;;;;;;;;4971476;28;20458;-87
2021/07/14 14:52:33;;;;;;;2.10;1.30;;;;;;;;;;4971528;28;20026;-87
2021/07/14 14:55:19;;;;;;;2.95;1.23;;;;;;;;;;4969621;28;20108;-87
2021/07/14 14:58:04;;;;;;;1.40;1.30;;;;;;;;;;4970982;28;20030;-86
2021/07/14 15:00:49;;;;;;;2.38;1.10;;;;;;;;;;4971116;28;20339;-86
2021/07/14 15:03:34;;;;;;;2.30;1.30;;;;;;;;;;4971316;28;20030;-86
2021/07/14 15:06:20;;;;;;;1.20;1.10;;;;;;;;;;4957423;28;20051;-86
2021/07/14 15:09:05;;;;;;;1.90;1.17;;;;;;;;;;4969632;28;20037;-87
2021/07/14 15:11:50;;;;;;;1.10;1.00;;;;;;;;;;4971274;28;20023;-86
2021/07/14 15:14:36;;;;;;;1.27;1.17;;;;;;;;;;4970853;28;20027;-86
2021/07/14 15:17:23;;;;;;;1.23;1.10;;;;;;;;;;4971536;28;20077;-86
2021/07/14 15:20:09;;;;;;;1.63;1.10;;;;;;;;;;4969605;28;20034;-86
2021/07/14 15:23:01;;;;;;;1.42;1.08;;;;;;;;;;4971145;28;20022;-85
2021/07/14 15:28:49;;;;;;;2.30;1.27;;;;;;;;;;4971193;28;20058;-86
2021/07/14 15:31:35;;;;;;;1.55;1.13;;;;;;;;;;4970895;28;20034;-86
2021/07/14 15:34:20;;;;;;;3.05;1.17;;;;;;;;;;4970761;28;20057;-85
2021/07/14 15:37:05;;;;;;;2.30;1.55;;;;;;;;;;4970247;28;20461;-86
2021/07/14 15:39:51;;;;;;;4.22;1.80;;;;;;;;;;4970661;28;20132;-86
2021/07/14 15:42:37;;;;;;;5.18;3.65;;;;;;;;;;4970455;28;20023;-86
2021/07/14 15:45:22;;;;;;;2.85;1.50;;;;;;;;;;4970491;28;20030;-86
2021/07/14 15:48:07;;;;;;;2.00;1.40;;;;;;;;;;4970818;28;20157;-86
2021/07/14 15:50:52;;;;;;;3.45;1.30;;;;;;;;;;4970659;28;20027;-86
2021/07/14 15:53:38;;;;;;;4.72;1.60;;;;;;;;;;4970246;28;20498;-85
2021/07/14 15:56:23;;;;;;;1.70;1.50;;;;;;;;;;4970650;28;20027;-86
2021/07/14 15:59:09;;;;;;;2.17;1.33;;;;;;;;;;4970209;28;20034;-86
2021/07/14 16:01:54;;;;;;;2.97;1.80;;;;;;;;;;4968638;28;20246;-86
2021/07/14 16:04:41;;;;;;;4.75;1.70;;;;;;;;;;4970317;28;20048;-85
2021/07/14 16:07:27;;;;;;;1.90;1.38;;;;;;;;;;4966381;28;20073;-85
2021/07/14 16:10:13;;;;;;;1.27;1.17;;;;;;;;;;4969257;28;20033;-85
2021/07/14 16:12:58;;;;;;;1.92;1.15;;;;;;;;;;4963975;28;20023;-85
2021/07/14 16:15:44;;;;;;;2.92;1.00;;;;;;;;;;4960983;28;20027;-85
2021/07/14 16:18:31;;;;;;;1.88;1.25;;;;;;;;;;4970046;28;20023;-87
2021/07/14 16:21:17;;;;;;;0.95;0.88;;;;;;;;;;4966580;28;20030;-85
2021/07/14 16:24:02;;;;;;;1.67;1.00;;;;;;;;;;4969826;28;20231;-86
2021/07/14 16:26:47;;;;;;;1.75;0.95;;;;;;;;;;4969788;28;20037;-85
2021/07/14 16:29:32;;;;;;;1.80;1.05;;;;;;;;;;4968670;28;20366;-86
2021/07/14 16:32:18;;;;;;;1.20;1.10;;;;;;;;;;4969746;28;20093;-86
2021/07/14 16:35:04;;;;;;;1.23;1.10;;;;;;;;;;4968174;28;20068;-85
2021/07/14 16:37:49;;;;;;;1.48;1.10;;;;;;;;;;4968883;28;20038;-86
2021/07/14 16:40:34;;;;;;;1.85;0.90;;;;;;;;;;4969618;28;20064;-85
2021/07/14 16:43:19;;;;;;;5.75;3.25;;;;;;;;;;4969250;28;20069;-86
2021/07/14 16:46:05;;;;;;;7.82;5.13;;;;;;;;;;4969110;28;20027;-86
2021/07/14 16:48:50;;;;;;;3.58;2.08;;;;;;;;;;4970048;28;20045;-85
2021/07/14 16:51:36;;;;;;;2.58;1.20;;;;;;;;;;4969548;28;20066;-87